sensor_id;sensor_type;location;lat;lon;timestamp;P1;durP1;ratioP1;P2;durP2;ratioP2
42110;SDS011;27766;52.174;5.456;2022-12-18T00:01:23;59.55;;;27.77;;
42110;SDS011;27766;52.174;5.456;2022-12-18T00:03:52;47.50;;;24.55;;
42110;SDS011;27766;52.174;5.456;2022-12-18T00:06:21;45.80;;;26.60;;
42110;SDS011;27766;52.174;5.456;2022-12-18T00:08:48;56.13;;;27.45;;
42110;SDS011;27766;52.174;5.456;2022-12-18T00:11:16;60.05;;;26.45;;
42110;SDS011;27766;52.174;5.456;2022-12-18T00:13:45;51.33;;;27.33;;
42110;SDS011;27766;52.174;5.456;2022-12-18T00:16:13;45.95;;;25.17;;
42110;SDS011;27766;52.174;5.456;2022-12-18T00:18:45;44.10;;;25.90;;
42110;SDS011;27766;52.174;5.456;2022-12-18T00:21:13;52.75;;;27.05;;
42110;SDS011;27766;52.174;5.456;2022-12-18T00:23:42;70.90;;;25.67;;
42110;SDS011;27766;52.174;5.456;2022-12-18T00:26:11;44.42;;;25.73;;
42110;SDS011;27766;52.174;5.456;2022-12-18T00:28:43;48.90;;;26.65;;
42110;SDS011;27766;52.174;5.456;2022-12-18T00:31:12;53.97;;;27.00;;
42110;SDS011;27766;52.174;5.456;2022-12-18T00:36:16;49.03;;;24.45;;
42110;SDS011;27766;52.174;5.456;2022-12-18T00:38:45;48.17;;;26.13;;
42110;SDS011;27766;52.174;5.456;2022-12-18T00:41:13;51.63;;;26.95;;
42110;SDS011;27766;52.174;5.456;2022-12-18T00:44:02;42.45;;;23.92;;
42110;SDS011;27766;52.174;5.456;2022-12-18T00:46:31;48.47;;;25.98;;
42110;SDS011;27766;52.174;5.456;2022-12-18T00:48:58;55.17;;;26.95;;
42110;SDS011;27766;52.174;5.456;2022-12-18T00:51:25;47.97;;;25.55;;
42110;SDS011;27766;52.174;5.456;2022-12-18T00:53:53;58.30;;;28.42;;
42110;SDS011;27766;52.174;5.456;2022-12-18T00:56:23;84.10;;;28.05;;
42110;SDS011;27766;52.174;5.456;2022-12-18T00:58:50;48.97;;;26.05;;
42110;SDS011;27766;52.174;5.456;2022-12-18T01:01:17;57.70;;;26.48;;
42110;SDS011;27766;52.174;5.456;2022-12-18T01:03:45;55.60;;;28.88;;
42110;SDS011;27766;52.174;5.456;2022-12-18T01:06:14;59.13;;;27.10;;
42110;SDS011;27766;52.174;5.456;2022-12-18T01:08:42;55.67;;;26.48;;
42110;SDS011;27766;52.174;5.456;2022-12-18T01:11:11;54.03;;;26.02;;
42110;SDS011;27766;52.174;5.456;2022-12-18T01:13:40;61.33;;;26.83;;
42110;SDS011;27766;52.174;5.456;2022-12-18T01:16:08;53.95;;;25.35;;
42110;SDS011;27766;52.174;5.456;2022-12-18T01:18:37;65.07;;;27.00;;
42110;SDS011;27766;52.174;5.456;2022-12-18T01:21:08;59.63;;;26.55;;
42110;SDS011;27766;52.174;5.456;2022-12-18T01:23:36;58.55;;;25.85;;
42110;SDS011;27766;52.174;5.456;2022-12-18T01:26:05;62.35;;;27.17;;
42110;SDS011;27766;52.174;5.456;2022-12-18T01:28:34;53.17;;;25.27;;
42110;SDS011;27766;52.174;5.456;2022-12-18T01:31:17;62.80;;;28.48;;
42110;SDS011;27766;52.174;5.456;2022-12-18T01:33:46;55.05;;;26.40;;
42110;SDS011;27766;52.174;5.456;2022-12-18T01:36:24;55.90;;;26.50;;
42110;SDS011;27766;52.174;5.456;2022-12-18T01:38:53;47.10;;;24.90;;
42110;SDS011;27766;52.174;5.456;2022-12-18T01:41:25;56.30;;;25.73;;
42110;SDS011;27766;52.174;5.456;2022-12-18T01:52:56;64.65;;;27.23;;
42110;SDS011;27766;52.174;5.456;2022-12-18T01:55:35;61.60;;;28.60;;
42110;SDS011;27766;52.174;5.456;2022-12-18T01:58:07;60.38;;;27.30;;
42110;SDS011;27766;52.174;5.456;2022-12-18T02:00:34;52.13;;;27.88;;
42110;SDS011;27766;52.174;5.456;2022-12-18T02:03:02;52.70;;;28.80;;
42110;SDS011;27766;52.174;5.456;2022-12-18T02:08:14;57.50;;;27.00;;
42110;SDS011;27766;52.174;5.456;2022-12-18T02:10:50;51.53;;;26.00;;
42110;SDS011;27766;52.174;5.456;2022-12-18T02:19:27;58.00;;;27.15;;
42110;SDS011;27766;52.174;5.456;2022-12-18T02:27:50;51.58;;;25.48;;
42110;SDS011;27766;52.174;5.456;2022-12-18T02:30:21;47.42;;;25.65;;
42110;SDS011;27766;52.174;5.456;2022-12-18T02:32:50;56.45;;;26.15;;
42110;SDS011;27766;52.174;5.456;2022-12-18T02:35:20;53.78;;;25.73;;
42110;SDS011;27766;52.174;5.456;2022-12-18T02:37:50;44.80;;;23.98;;
42110;SDS011;27766;52.174;5.456;2022-12-18T02:40:20;62.15;;;27.02;;
42110;SDS011;27766;52.174;5.456;2022-12-18T02:42:50;44.17;;;23.73;;
42110;SDS011;27766;52.174;5.456;2022-12-18T02:45:17;45.30;;;24.73;;
42110;SDS011;27766;52.174;5.456;2022-12-18T02:47:46;50.53;;;25.60;;
42110;SDS011;27766;52.174;5.456;2022-12-18T02:58:15;48.67;;;23.20;;
42110;SDS011;27766;52.174;5.456;2022-12-18T03:00:58;45.38;;;23.40;;
42110;SDS011;27766;52.174;5.456;2022-12-18T03:03:40;45.05;;;23.42;;
42110;SDS011;27766;52.174;5.456;2022-12-18T03:06:38;46.40;;;21.95;;
42110;SDS011;27766;52.174;5.456;2022-12-18T03:09:09;42.83;;;22.65;;
42110;SDS011;27766;52.174;5.456;2022-12-18T03:11:41;46.60;;;24.10;;
42110;SDS011;27766;52.174;5.456;2022-12-18T03:14:32;38.42;;;22.75;;
42110;SDS011;27766;52.174;5.456;2022-12-18T03:17:04;44.25;;;22.25;;
42110;SDS011;27766;52.174;5.456;2022-12-18T03:19:35;36.85;;;21.75;;
42110;SDS011;27766;52.174;5.456;2022-12-18T03:22:05;32.25;;;20.17;;
42110;SDS011;27766;52.174;5.456;2022-12-18T03:24:34;37.45;;;21.73;;
42110;SDS011;27766;52.174;5.456;2022-12-18T03:27:06;40.60;;;20.83;;
42110;SDS011;27766;52.174;5.456;2022-12-18T03:29:39;36.00;;;21.05;;
42110;SDS011;27766;52.174;5.456;2022-12-18T03:32:11;36.78;;;20.55;;
42110;SDS011;27766;52.174;5.456;2022-12-18T03:34:47;38.13;;;20.23;;
42110;SDS011;27766;52.174;5.456;2022-12-18T03:37:17;31.20;;;19.60;;
42110;SDS011;27766;52.174;5.456;2022-12-18T03:39:45;35.72;;;21.23;;
42110;SDS011;27766;52.174;5.456;2022-12-18T03:42:15;35.65;;;19.00;;
42110;SDS011;27766;52.174;5.456;2022-12-18T03:44:56;42.63;;;20.98;;
42110;SDS011;27766;52.174;5.456;2022-12-18T03:50:17;31.73;;;18.95;;
42110;SDS011;27766;52.174;5.456;2022-12-18T03:53:00;31.92;;;18.83;;
42110;SDS011;27766;52.174;5.456;2022-12-18T03:55:29;37.33;;;18.40;;
42110;SDS011;27766;52.174;5.456;2022-12-18T03:57:59;35.00;;;19.10;;
42110;SDS011;27766;52.174;5.456;2022-12-18T04:00:30;30.05;;;18.98;;
42110;SDS011;27766;52.174;5.456;2022-12-18T04:02:58;36.53;;;19.60;;
42110;SDS011;27766;52.174;5.456;2022-12-18T04:05:28;41.25;;;18.75;;
42110;SDS011;27766;52.174;5.456;2022-12-18T04:07:56;33.40;;;19.80;;
42110;SDS011;27766;52.174;5.456;2022-12-18T04:10:24;35.50;;;18.83;;
42110;SDS011;27766;52.174;5.456;2022-12-18T04:12:51;34.67;;;18.48;;
42110;SDS011;27766;52.174;5.456;2022-12-18T04:15:23;33.08;;;19.35;;
42110;SDS011;27766;52.174;5.456;2022-12-18T04:17:50;42.60;;;20.25;;
42110;SDS011;27766;52.174;5.456;2022-12-18T04:20:17;32.63;;;17.90;;
42110;SDS011;27766;52.174;5.456;2022-12-18T04:22:44;36.65;;;19.92;;
42110;SDS011;27766;52.174;5.456;2022-12-18T04:25:12;39.67;;;19.42;;
42110;SDS011;27766;52.174;5.456;2022-12-18T04:27:39;37.63;;;20.35;;
42110;SDS011;27766;52.174;5.456;2022-12-18T04:30:07;35.58;;;19.17;;
42110;SDS011;27766;52.174;5.456;2022-12-18T04:32:39;42.70;;;20.27;;
42110;SDS011;27766;52.174;5.456;2022-12-18T04:35:06;39.30;;;19.92;;
42110;SDS011;27766;52.174;5.456;2022-12-18T04:37:37;36.22;;;19.80;;
42110;SDS011;27766;52.174;5.456;2022-12-18T04:40:04;32.35;;;20.20;;
42110;SDS011;27766;52.174;5.456;2022-12-18T04:42:33;36.88;;;19.75;;
42110;SDS011;27766;52.174;5.456;2022-12-18T04:45:01;43.38;;;19.27;;
42110;SDS011;27766;52.174;5.456;2022-12-18T04:47:28;37.75;;;21.77;;
42110;SDS011;27766;52.174;5.456;2022-12-18T04:49:55;41.75;;;19.92;;
42110;SDS011;27766;52.174;5.456;2022-12-18T04:52:22;43.03;;;18.75;;
42110;SDS011;27766;52.174;5.456;2022-12-18T04:54:52;36.65;;;18.33;;
42110;SDS011;27766;52.174;5.456;2022-12-18T04:57:19;29.00;;;17.92;;
42110;SDS011;27766;52.174;5.456;2022-12-18T04:59:46;35.85;;;20.25;;
42110;SDS011;27766;52.174;5.456;2022-12-18T05:02:14;31.35;;;18.05;;
42110;SDS011;27766;52.174;5.456;2022-12-18T05:04:41;34.83;;;18.15;;
42110;SDS011;27766;52.174;5.456;2022-12-18T05:07:08;32.70;;;19.65;;
42110;SDS011;27766;52.174;5.456;2022-12-18T05:09:38;31.17;;;17.05;;
42110;SDS011;27766;52.174;5.456;2022-12-18T05:12:06;31.67;;;17.75;;
42110;SDS011;27766;52.174;5.456;2022-12-18T05:14:33;30.60;;;17.25;;
42110;SDS011;27766;52.174;5.456;2022-12-18T05:17:00;37.67;;;18.17;;
42110;SDS011;27766;52.174;5.456;2022-12-18T05:19:27;33.95;;;18.80;;
42110;SDS011;27766;52.174;5.456;2022-12-18T05:21:54;27.42;;;16.80;;
42110;SDS011;27766;52.174;5.456;2022-12-18T05:24:21;35.13;;;17.67;;
42110;SDS011;27766;52.174;5.456;2022-12-18T05:26:48;35.17;;;17.65;;
42110;SDS011;27766;52.174;5.456;2022-12-18T05:29:15;27.13;;;16.85;;
42110;SDS011;27766;52.174;5.456;2022-12-18T05:31:42;33.70;;;17.75;;
42110;SDS011;27766;52.174;5.456;2022-12-18T05:34:10;29.88;;;16.58;;
42110;SDS011;27766;52.174;5.456;2022-12-18T05:36:38;38.65;;;18.52;;
42110;SDS011;27766;52.174;5.456;2022-12-18T05:39:06;38.63;;;18.13;;
42110;SDS011;27766;52.174;5.456;2022-12-18T05:41:33;38.53;;;16.52;;
42110;SDS011;27766;52.174;5.456;2022-12-18T05:44:01;36.78;;;17.27;;
42110;SDS011;27766;52.174;5.456;2022-12-18T05:46:28;28.17;;;17.00;;
42110;SDS011;27766;52.174;5.456;2022-12-18T05:48:59;25.08;;;16.20;;
42110;SDS011;27766;52.174;5.456;2022-12-18T05:51:27;34.25;;;17.13;;
42110;SDS011;27766;52.174;5.456;2022-12-18T05:53:54;32.05;;;16.30;;
42110;SDS011;27766;52.174;5.456;2022-12-18T05:56:22;34.85;;;15.50;;
42110;SDS011;27766;52.174;5.456;2022-12-18T05:58:53;25.45;;;15.02;;
42110;SDS011;27766;52.174;5.456;2022-12-18T06:01:22;28.35;;;15.77;;
42110;SDS011;27766;52.174;5.456;2022-12-18T06:03:53;29.05;;;16.13;;
42110;SDS011;27766;52.174;5.456;2022-12-18T06:06:22;21.88;;;14.13;;
42110;SDS011;27766;52.174;5.456;2022-12-18T06:08:51;24.15;;;13.07;;
42110;SDS011;27766;52.174;5.456;2022-12-18T06:11:20;24.50;;;14.43;;
42110;SDS011;27766;52.174;5.456;2022-12-18T06:13:50;24.92;;;14.70;;
42110;SDS011;27766;52.174;5.456;2022-12-18T06:16:24;24.05;;;14.93;;
42110;SDS011;27766;52.174;5.456;2022-12-18T06:18:52;22.77;;;14.07;;
42110;SDS011;27766;52.174;5.456;2022-12-18T06:21:19;24.13;;;14.80;;
42110;SDS011;27766;52.174;5.456;2022-12-18T06:23:46;22.08;;;14.70;;
42110;SDS011;27766;52.174;5.456;2022-12-18T06:26:14;25.35;;;13.77;;
42110;SDS011;27766;52.174;5.456;2022-12-18T06:28:41;20.05;;;14.30;;
42110;SDS011;27766;52.174;5.456;2022-12-18T06:31:09;22.65;;;13.70;;
42110;SDS011;27766;52.174;5.456;2022-12-18T06:33:37;20.13;;;13.65;;
42110;SDS011;27766;52.174;5.456;2022-12-18T06:36:06;20.38;;;12.90;;
42110;SDS011;27766;52.174;5.456;2022-12-18T06:38:39;21.60;;;13.95;;
42110;SDS011;27766;52.174;5.456;2022-12-18T06:43:37;22.00;;;13.25;;
42110;SDS011;27766;52.174;5.456;2022-12-18T06:46:06;24.10;;;13.52;;
42110;SDS011;27766;52.174;5.456;2022-12-18T06:48:33;17.65;;;11.25;;
42110;SDS011;27766;52.174;5.456;2022-12-18T06:51:01;23.98;;;13.88;;
42110;SDS011;27766;52.174;5.456;2022-12-18T06:53:29;22.55;;;12.35;;
42110;SDS011;27766;52.174;5.456;2022-12-18T06:56:03;20.80;;;12.27;;
42110;SDS011;27766;52.174;5.456;2022-12-18T06:58:37;21.58;;;12.23;;
42110;SDS011;27766;52.174;5.456;2022-12-18T07:01:06;23.15;;;12.98;;
42110;SDS011;27766;52.174;5.456;2022-12-18T07:03:37;24.38;;;13.32;;
42110;SDS011;27766;52.174;5.456;2022-12-18T07:06:13;24.63;;;13.10;;
42110;SDS011;27766;52.174;5.456;2022-12-18T07:08:44;20.00;;;12.98;;
42110;SDS011;27766;52.174;5.456;2022-12-18T07:11:13;18.63;;;11.90;;
42110;SDS011;27766;52.174;5.456;2022-12-18T07:13:40;18.85;;;12.60;;
42110;SDS011;27766;52.174;5.456;2022-12-18T07:16:09;28.67;;;13.63;;
42110;SDS011;27766;52.174;5.456;2022-12-18T07:18:50;21.15;;;13.18;;
42110;SDS011;27766;52.174;5.456;2022-12-18T07:21:18;31.60;;;14.00;;
42110;SDS011;27766;52.174;5.456;2022-12-18T07:23:46;22.15;;;14.52;;
42110;SDS011;27766;52.174;5.456;2022-12-18T07:26:15;25.52;;;13.15;;
42110;SDS011;27766;52.174;5.456;2022-12-18T07:28:45;23.75;;;12.68;;
42110;SDS011;27766;52.174;5.456;2022-12-18T07:31:13;27.73;;;14.02;;
42110;SDS011;27766;52.174;5.456;2022-12-18T07:33:42;26.20;;;12.88;;
42110;SDS011;27766;52.174;5.456;2022-12-18T07:36:10;20.50;;;11.68;;
42110;SDS011;27766;52.174;5.456;2022-12-18T07:38:38;20.63;;;12.35;;
42110;SDS011;27766;52.174;5.456;2022-12-18T07:41:07;18.58;;;12.38;;
42110;SDS011;27766;52.174;5.456;2022-12-18T07:43:39;25.25;;;12.80;;
42110;SDS011;27766;52.174;5.456;2022-12-18T07:46:08;20.90;;;13.55;;
42110;SDS011;27766;52.174;5.456;2022-12-18T07:48:39;23.88;;;14.82;;
42110;SDS011;27766;52.174;5.456;2022-12-18T07:51:07;27.67;;;15.43;;
42110;SDS011;27766;52.174;5.456;2022-12-18T07:53:35;39.85;;;19.50;;
42110;SDS011;27766;52.174;5.456;2022-12-18T07:56:07;23.13;;;14.98;;
42110;SDS011;27766;52.174;5.456;2022-12-18T07:58:54;23.92;;;14.88;;
42110;SDS011;27766;52.174;5.456;2022-12-18T08:01:22;21.40;;;13.35;;
42110;SDS011;27766;52.174;5.456;2022-12-18T08:03:50;26.52;;;13.57;;
42110;SDS011;27766;52.174;5.456;2022-12-18T08:06:18;22.02;;;13.32;;
42110;SDS011;27766;52.174;5.456;2022-12-18T08:08:51;19.60;;;12.88;;
42110;SDS011;27766;52.174;5.456;2022-12-18T08:11:19;20.13;;;13.73;;
42110;SDS011;27766;52.174;5.456;2022-12-18T08:13:47;18.83;;;12.68;;
42110;SDS011;27766;52.174;5.456;2022-12-18T08:16:15;21.15;;;13.73;;
42110;SDS011;27766;52.174;5.456;2022-12-18T08:18:42;20.45;;;13.25;;
42110;SDS011;27766;52.174;5.456;2022-12-18T08:21:14;19.00;;;13.10;;
42110;SDS011;27766;52.174;5.456;2022-12-18T08:23:43;20.50;;;13.20;;
42110;SDS011;27766;52.174;5.456;2022-12-18T08:26:12;18.08;;;12.20;;
42110;SDS011;27766;52.174;5.456;2022-12-18T08:28:40;19.20;;;12.00;;
42110;SDS011;27766;52.174;5.456;2022-12-18T08:31:07;21.75;;;12.57;;
42110;SDS011;27766;52.174;5.456;2022-12-18T08:33:36;16.02;;;11.90;;
42110;SDS011;27766;52.174;5.456;2022-12-18T08:36:05;20.73;;;13.88;;
42110;SDS011;27766;52.174;5.456;2022-12-18T08:38:33;19.38;;;12.52;;
42110;SDS011;27766;52.174;5.456;2022-12-18T08:41:05;19.83;;;12.30;;
42110;SDS011;27766;52.174;5.456;2022-12-18T08:43:34;19.55;;;12.50;;
42110;SDS011;27766;52.174;5.456;2022-12-18T08:46:21;24.45;;;11.85;;
42110;SDS011;27766;52.174;5.456;2022-12-18T08:48:50;18.35;;;12.25;;
42110;SDS011;27766;52.174;5.456;2022-12-18T08:51:18;20.75;;;12.68;;
42110;SDS011;27766;52.174;5.456;2022-12-18T08:53:46;18.98;;;13.32;;
42110;SDS011;27766;52.174;5.456;2022-12-18T08:56:14;16.52;;;12.27;;
42110;SDS011;27766;52.174;5.456;2022-12-18T08:58:41;18.17;;;12.50;;
42110;SDS011;27766;52.174;5.456;2022-12-18T09:01:09;16.98;;;12.70;;
42110;SDS011;27766;52.174;5.456;2022-12-18T09:03:38;22.23;;;13.13;;
42110;SDS011;27766;52.174;5.456;2022-12-18T09:06:07;17.10;;;11.38;;
42110;SDS011;27766;52.174;5.456;2022-12-18T09:08:35;21.10;;;13.30;;
42110;SDS011;27766;52.174;5.456;2022-12-18T09:11:10;18.60;;;11.80;;
42110;SDS011;27766;52.174;5.456;2022-12-18T09:13:40;21.75;;;12.50;;
42110;SDS011;27766;52.174;5.456;2022-12-18T09:16:08;23.13;;;12.35;;
42110;SDS011;27766;52.174;5.456;2022-12-18T09:18:35;20.02;;;11.45;;
42110;SDS011;27766;52.174;5.456;2022-12-18T09:21:11;16.13;;;11.23;;
42110;SDS011;27766;52.174;5.456;2022-12-18T09:23:40;23.63;;;11.95;;
42110;SDS011;27766;52.174;5.456;2022-12-18T09:26:07;20.70;;;12.00;;
42110;SDS011;27766;52.174;5.456;2022-12-18T09:28:35;19.40;;;11.10;;
42110;SDS011;27766;52.174;5.456;2022-12-18T09:31:04;26.42;;;14.82;;
42110;SDS011;27766;52.174;5.456;2022-12-18T09:33:34;27.90;;;15.23;;
42110;SDS011;27766;52.174;5.456;2022-12-18T09:36:03;30.55;;;16.15;;
42110;SDS011;27766;52.174;5.456;2022-12-18T09:38:33;20.63;;;12.60;;
42110;SDS011;27766;52.174;5.456;2022-12-18T09:41:05;24.65;;;13.18;;
42110;SDS011;27766;52.174;5.456;2022-12-18T09:43:58;15.60;;;11.00;;
42110;SDS011;27766;52.174;5.456;2022-12-18T09:46:33;20.95;;;10.57;;
42110;SDS011;27766;52.174;5.456;2022-12-18T09:49:14;14.88;;;10.00;;
42110;SDS011;27766;52.174;5.456;2022-12-18T09:51:46;17.75;;;11.00;;
42110;SDS011;27766;52.174;5.456;2022-12-18T09:54:22;16.80;;;9.93;;
42110;SDS011;27766;52.174;5.456;2022-12-18T09:56:53;16.08;;;9.75;;
42110;SDS011;27766;52.174;5.456;2022-12-18T09:59:25;18.35;;;10.70;;
42110;SDS011;27766;52.174;5.456;2022-12-18T10:01:56;18.55;;;10.30;;
42110;SDS011;27766;52.174;5.456;2022-12-18T10:04:24;15.07;;;10.50;;
42110;SDS011;27766;52.174;5.456;2022-12-18T10:07:03;13.43;;;9.52;;
42110;SDS011;27766;52.174;5.456;2022-12-18T10:10:03;16.20;;;9.98;;
42110;SDS011;27766;52.174;5.456;2022-12-18T10:12:55;11.80;;;8.70;;
42110;SDS011;27766;52.174;5.456;2022-12-18T10:16:35;13.95;;;9.45;;
42110;SDS011;27766;52.174;5.456;2022-12-18T10:21:21;15.02;;;9.27;;
42110;SDS011;27766;52.174;5.456;2022-12-18T10:27:17;13.45;;;9.27;;
42110;SDS011;27766;52.174;5.456;2022-12-18T10:29:48;14.10;;;8.27;;
42110;SDS011;27766;52.174;5.456;2022-12-18T10:32:19;17.92;;;9.65;;
42110;SDS011;27766;52.174;5.456;2022-12-18T10:37:26;12.25;;;8.38;;
42110;SDS011;27766;52.174;5.456;2022-12-18T10:40:06;12.15;;;8.18;;
42110;SDS011;27766;52.174;5.456;2022-12-18T10:42:40;13.32;;;8.27;;
42110;SDS011;27766;52.174;5.456;2022-12-18T10:45:12;25.45;;;10.02;;
42110;SDS011;27766;52.174;5.456;2022-12-18T10:47:46;18.63;;;11.48;;
42110;SDS011;27766;52.174;5.456;2022-12-18T10:50:18;19.77;;;10.60;;
42110;SDS011;27766;52.174;5.456;2022-12-18T10:52:52;20.95;;;11.73;;
42110;SDS011;27766;52.174;5.456;2022-12-18T10:55:24;14.20;;;9.57;;
42110;SDS011;27766;52.174;5.456;2022-12-18T10:58:12;13.82;;;9.60;;
42110;SDS011;27766;52.174;5.456;2022-12-18T11:03:32;22.38;;;15.50;;
42110;SDS011;27766;52.174;5.456;2022-12-18T11:06:04;11.35;;;8.98;;
42110;SDS011;27766;52.174;5.456;2022-12-18T11:08:38;14.70;;;9.15;;
42110;SDS011;27766;52.174;5.456;2022-12-18T11:11:22;14.35;;;8.93;;
42110;SDS011;27766;52.174;5.456;2022-12-18T11:16:26;14.73;;;10.35;;
42110;SDS011;27766;52.174;5.456;2022-12-18T11:19:13;16.45;;;10.27;;
42110;SDS011;27766;52.174;5.456;2022-12-18T11:22:17;13.82;;;9.45;;
42110;SDS011;27766;52.174;5.456;2022-12-18T11:24:52;15.82;;;9.88;;
42110;SDS011;27766;52.174;5.456;2022-12-18T11:27:48;17.48;;;8.55;;
42110;SDS011;27766;52.174;5.456;2022-12-18T11:30:28;15.70;;;9.38;;
42110;SDS011;27766;52.174;5.456;2022-12-18T11:38:21;12.77;;;8.57;;
42110;SDS011;27766;52.174;5.456;2022-12-18T11:40:54;13.30;;;9.50;;
42110;SDS011;27766;52.174;5.456;2022-12-18T11:43:27;11.50;;;7.57;;
42110;SDS011;27766;52.174;5.456;2022-12-18T11:45:59;12.20;;;8.70;;
42110;SDS011;27766;52.174;5.456;2022-12-18T11:48:34;13.43;;;8.60;;
42110;SDS011;27766;52.174;5.456;2022-12-18T11:51:10;14.20;;;10.70;;
42110;SDS011;27766;52.174;5.456;2022-12-18T11:53:41;17.17;;;11.93;;
42110;SDS011;27766;52.174;5.456;2022-12-18T11:56:16;12.25;;;8.80;;
42110;SDS011;27766;52.174;5.456;2022-12-18T12:07:56;12.90;;;8.80;;
42110;SDS011;27766;52.174;5.456;2022-12-18T12:10:46;22.45;;;13.82;;
42110;SDS011;27766;52.174;5.456;2022-12-18T12:13:20;16.85;;;9.35;;
42110;SDS011;27766;52.174;5.456;2022-12-18T12:23:05;16.63;;;10.50;;
42110;SDS011;27766;52.174;5.456;2022-12-18T12:25:37;14.35;;;10.25;;
42110;SDS011;27766;52.174;5.456;2022-12-18T12:33:46;11.95;;;9.70;;
42110;SDS011;27766;52.174;5.456;2022-12-18T12:39:29;15.43;;;11.27;;
42110;SDS011;27766;52.174;5.456;2022-12-18T12:41:59;14.65;;;8.98;;
42110;SDS011;27766;52.174;5.456;2022-12-18T12:44:48;12.02;;;8.32;;
42110;SDS011;27766;52.174;5.456;2022-12-18T12:47:25;13.65;;;8.85;;
42110;SDS011;27766;52.174;5.456;2022-12-18T12:49:58;18.98;;;9.65;;
42110;SDS011;27766;52.174;5.456;2022-12-18T12:52:33;14.13;;;10.10;;
42110;SDS011;27766;52.174;5.456;2022-12-18T12:55:23;11.50;;;8.80;;
42110;SDS011;27766;52.174;5.456;2022-12-18T13:00:25;14.77;;;9.40;;
42110;SDS011;27766;52.174;5.456;2022-12-18T13:05:34;16.63;;;10.20;;
42110;SDS011;27766;52.174;5.456;2022-12-18T13:08:24;12.40;;;9.25;;
42110;SDS011;27766;52.174;5.456;2022-12-18T13:11:28;22.00;;;10.45;;
42110;SDS011;27766;52.174;5.456;2022-12-18T13:14:24;13.88;;;9.35;;
42110;SDS011;27766;52.174;5.456;2022-12-18T13:17:16;13.50;;;9.02;;
42110;SDS011;27766;52.174;5.456;2022-12-18T13:20:33;15.33;;;8.97;;
42110;SDS011;27766;52.174;5.456;2022-12-18T13:22:46;15.10;;;9.25;;
42110;SDS011;27766;52.174;5.456;2022-12-18T13:40:53;17.55;;;9.60;;
42110;SDS011;27766;52.174;5.456;2022-12-18T13:45:50;15.95;;;9.63;;
42110;SDS011;27766;52.174;5.456;2022-12-18T13:48:34;16.75;;;10.20;;
42110;SDS011;27766;52.174;5.456;2022-12-18T13:51:09;13.88;;;10.38;;
42110;SDS011;27766;52.174;5.456;2022-12-18T13:56:32;18.17;;;10.65;;
42110;SDS011;27766;52.174;5.456;2022-12-18T13:59:13;15.75;;;10.85;;
42110;SDS011;27766;52.174;5.456;2022-12-18T14:01:43;13.50;;;9.50;;
42110;SDS011;27766;52.174;5.456;2022-12-18T14:04:22;21.95;;;12.25;;
42110;SDS011;27766;52.174;5.456;2022-12-18T14:07:07;13.95;;;9.70;;
42110;SDS011;27766;52.174;5.456;2022-12-18T14:09:42;14.88;;;9.27;;
42110;SDS011;27766;52.174;5.456;2022-12-18T14:12:16;21.08;;;11.38;;
42110;SDS011;27766;52.174;5.456;2022-12-18T14:15:11;14.88;;;10.02;;
42110;SDS011;27766;52.174;5.456;2022-12-18T14:17:44;21.05;;;11.75;;
42110;SDS011;27766;52.174;5.456;2022-12-18T14:20:14;19.08;;;10.23;;
42110;SDS011;27766;52.174;5.456;2022-12-18T14:22:45;15.38;;;10.07;;
42110;SDS011;27766;52.174;5.456;2022-12-18T14:25:16;13.80;;;9.53;;
42110;SDS011;27766;52.174;5.456;2022-12-18T14:28:12;17.67;;;11.73;;
42110;SDS011;27766;52.174;5.456;2022-12-18T14:30:41;19.27;;;12.85;;
42110;SDS011;27766;52.174;5.456;2022-12-18T14:33:12;23.85;;;13.43;;
42110;SDS011;27766;52.174;5.456;2022-12-18T14:36:03;18.63;;;11.38;;
42110;SDS011;27766;52.174;5.456;2022-12-18T14:38:36;16.17;;;11.05;;
42110;SDS011;27766;52.174;5.456;2022-12-18T14:41:12;17.85;;;11.02;;
42110;SDS011;27766;52.174;5.456;2022-12-18T14:43:42;17.48;;;10.90;;
42110;SDS011;27766;52.174;5.456;2022-12-18T14:49:45;20.23;;;11.05;;
42110;SDS011;27766;52.174;5.456;2022-12-18T14:51:56;24.23;;;10.43;;
42110;SDS011;27766;52.174;5.456;2022-12-18T14:54:24;30.42;;;12.07;;
42110;SDS011;27766;52.174;5.456;2022-12-18T14:57:15;24.20;;;13.80;;
42110;SDS011;27766;52.174;5.456;2022-12-18T14:59:49;19.63;;;13.80;;
42110;SDS011;27766;52.174;5.456;2022-12-18T15:02:24;18.23;;;12.18;;
42110;SDS011;27766;52.174;5.456;2022-12-18T15:05:01;16.73;;;10.68;;
42110;SDS011;27766;52.174;5.456;2022-12-18T15:07:42;16.02;;;9.85;;
42110;SDS011;27766;52.174;5.456;2022-12-18T15:12:47;15.05;;;9.85;;
42110;SDS011;27766;52.174;5.456;2022-12-18T15:18:00;17.50;;;11.68;;
42110;SDS011;27766;52.174;5.456;2022-12-18T15:20:30;15.73;;;10.48;;
42110;SDS011;27766;52.174;5.456;2022-12-18T15:22:59;17.95;;;11.13;;
42110;SDS011;27766;52.174;5.456;2022-12-18T15:25:28;16.77;;;10.70;;
42110;SDS011;27766;52.174;5.456;2022-12-18T15:27:59;15.30;;;10.93;;
42110;SDS011;27766;52.174;5.456;2022-12-18T15:30:26;16.83;;;11.20;;
42110;SDS011;27766;52.174;5.456;2022-12-18T15:33:16;17.60;;;12.60;;
42110;SDS011;27766;52.174;5.456;2022-12-18T15:36:23;17.60;;;11.00;;
42110;SDS011;27766;52.174;5.456;2022-12-18T15:38:52;17.45;;;11.60;;
42110;SDS011;27766;52.174;5.456;2022-12-18T15:41:21;20.85;;;13.80;;
42110;SDS011;27766;52.174;5.456;2022-12-18T15:43:51;17.63;;;12.07;;
42110;SDS011;27766;52.174;5.456;2022-12-18T15:46:20;20.65;;;13.93;;
42110;SDS011;27766;52.174;5.456;2022-12-18T15:48:50;25.25;;;12.02;;
42110;SDS011;27766;52.174;5.456;2022-12-18T15:51:28;18.65;;;11.20;;
42110;SDS011;27766;52.174;5.456;2022-12-18T15:53:59;19.85;;;12.50;;
42110;SDS011;27766;52.174;5.456;2022-12-18T15:56:32;20.05;;;12.55;;
42110;SDS011;27766;52.174;5.456;2022-12-18T15:59:19;24.77;;;12.93;;
42110;SDS011;27766;52.174;5.456;2022-12-18T16:01:48;16.13;;;10.77;;
42110;SDS011;27766;52.174;5.456;2022-12-18T16:04:19;19.13;;;11.65;;
42110;SDS011;27766;52.174;5.456;2022-12-18T16:06:48;19.20;;;11.82;;
42110;SDS011;27766;52.174;5.456;2022-12-18T16:09:36;19.85;;;12.32;;
42110;SDS011;27766;52.174;5.456;2022-12-18T16:12:03;16.63;;;11.57;;
42110;SDS011;27766;52.174;5.456;2022-12-18T16:14:33;17.52;;;11.38;;
42110;SDS011;27766;52.174;5.456;2022-12-18T16:17:04;19.75;;;11.95;;
42110;SDS011;27766;52.174;5.456;2022-12-18T16:19:35;18.63;;;12.45;;
42110;SDS011;27766;52.174;5.456;2022-12-18T16:22:02;14.82;;;10.95;;
42110;SDS011;27766;52.174;5.456;2022-12-18T16:24:31;18.63;;;11.38;;
42110;SDS011;27766;52.174;5.456;2022-12-18T16:26:59;17.10;;;12.00;;
42110;SDS011;27766;52.174;5.456;2022-12-18T16:29:27;17.17;;;11.30;;
42110;SDS011;27766;52.174;5.456;2022-12-18T16:31:56;18.35;;;11.70;;
42110;SDS011;27766;52.174;5.456;2022-12-18T16:34:25;20.55;;;12.38;;
42110;SDS011;27766;52.174;5.456;2022-12-18T16:36:55;22.80;;;12.15;;
42110;SDS011;27766;52.174;5.456;2022-12-18T16:39:32;15.88;;;11.25;;
42110;SDS011;27766;52.174;5.456;2022-12-18T16:42:02;20.00;;;12.98;;
42110;SDS011;27766;52.174;5.456;2022-12-18T16:44:33;19.90;;;13.20;;
42110;SDS011;27766;52.174;5.456;2022-12-18T16:47:01;19.30;;;12.38;;
42110;SDS011;27766;52.174;5.456;2022-12-18T16:49:29;19.40;;;13.10;;
42110;SDS011;27766;52.174;5.456;2022-12-18T16:51:56;17.55;;;11.90;;